createdAt,value
2023-05-01T00:01:54.451Z,45.80
2023-05-01T00:04:23.557Z,45.60
2023-05-01T00:06:53.491Z,45.00
2023-05-01T00:09:21.857Z,46.30
2023-05-01T00:11:50.505Z,45.80
2023-05-01T00:14:18.944Z,44.70
2023-05-01T00:16:48.028Z,43.70
2023-05-01T00:19:19.109Z,43.40
2023-05-01T00:21:48.531Z,42.50
2023-05-01T00:24:18.776Z,42.40
2023-05-01T00:26:47.120Z,42.40
2023-05-01T00:29:15.808Z,41.80
2023-05-01T00:31:45.758Z,42.00
2023-05-01T00:34:14.284Z,41.90
2023-05-01T00:36:42.808Z,41.70
2023-05-01T00:39:11.622Z,40.70
2023-05-01T00:41:41.580Z,39.70
2023-05-01T00:44:09.931Z,41.00
2023-05-01T00:46:39.302Z,41.30
2023-05-01T00:49:07.906Z,42.10
2023-05-01T00:51:37.489Z,41.90
2023-05-01T00:54:07.416Z,42.30
2023-05-01T00:56:36.094Z,44.60
2023-05-01T00:59:05.948Z,45.80
2023-05-01T01:01:34.800Z,46.00
2023-05-01T01:04:03.642Z,47.10
2023-05-01T01:06:39.275Z,46.40
2023-05-01T01:09:22.283Z,46.70
2023-05-01T01:11:59.448Z,46.80
2023-05-01T01:14:34.277Z,46.30
2023-05-01T01:17:09.488Z,45.50
2023-05-01T01:20:15.482Z,44.60
2023-05-01T01:22:52.148Z,46.00
2023-05-01T01:26:02.509Z,46.00
2023-05-01T01:28:52.103Z,45.20
2023-05-01T01:31:23.014Z,44.60
2023-05-01T01:34:05.901Z,44.20
2023-05-01T01:36:42.532Z,43.80
2023-05-01T01:39:16.187Z,43.00
2023-05-01T01:41:51.529Z,42.60
2023-05-01T01:44:27.090Z,42.90
2023-05-01T01:46:56.103Z,43.60
2023-05-01T01:49:28.686Z,45.10
2023-05-01T01:51:59.155Z,44.30
2023-05-01T01:54:31.640Z,43.70
2023-05-01T01:57:03.448Z,43.60
2023-05-01T01:59:34.732Z,42.10
2023-05-01T02:02:06.127Z,40.90
2023-05-01T02:04:38.012Z,42.20
2023-05-01T02:07:07.719Z,42.80
2023-05-01T02:09:37.910Z,43.30
2023-05-01T02:12:09.342Z,42.10
2023-05-01T02:14:39.095Z,42.20
2023-05-01T02:17:09.244Z,42.10
2023-05-01T02:19:45.963Z,43.90
2023-05-01T02:22:18.332Z,44.70
2023-05-01T02:24:49.856Z,44.70
2023-05-01T02:27:22.199Z,45.90
2023-05-01T02:29:53.665Z,45.60
2023-05-01T02:32:22.978Z,44.40
2023-05-01T02:34:53.291Z,44.60
2023-05-01T02:37:22.374Z,43.60
2023-05-01T02:39:51.405Z,44.80
2023-05-01T02:42:25.672Z,45.20
2023-05-01T02:44:58.840Z,47.00
2023-05-01T02:47:30.025Z,46.90
2023-05-01T02:50:01.566Z,47.50
2023-05-01T02:52:31.144Z,47.00
2023-05-01T02:55:18.946Z,47.30
2023-05-01T02:57:47.377Z,48.70
2023-05-01T03:00:15.884Z,47.90
2023-05-01T03:02:44.539Z,47.50
2023-05-01T03:05:14.437Z,48.20
2023-05-01T03:07:43.586Z,49.10
2023-05-01T03:10:12.680Z,48.20
2023-05-01T03:12:41.978Z,46.90
2023-05-01T03:15:12.074Z,46.80
2023-05-01T03:17:40.513Z,45.90
2023-05-01T03:20:11.040Z,47.10
2023-05-01T03:22:41.861Z,46.90
2023-05-01T03:25:11.286Z,45.10
2023-05-01T03:27:39.871Z,46.10
2023-05-01T03:30:10.123Z,46.60
2023-05-01T03:32:42.225Z,46.60
2023-05-01T03:35:19.126Z,48.20
2023-05-01T03:37:49.457Z,48.80
2023-05-01T03:40:38.490Z,48.10
2023-05-01T03:43:26.093Z,47.00
2023-05-01T03:45:56.184Z,47.60
2023-05-01T03:48:25.627Z,47.70
2023-05-01T03:50:54.171Z,47.50
2023-05-01T03:53:24.821Z,48.40
2023-05-01T03:55:53.493Z,48.00
2023-05-01T03:58:22.354Z,47.20
2023-05-01T04:00:52.332Z,46.70
2023-05-01T04:03:21.108Z,46.60
2023-05-01T04:05:55.138Z,46.60
2023-05-01T04:08:25.380Z,46.50
2023-05-01T04:10:53.848Z,47.80
2023-05-01T04:13:23.402Z,47.20
2023-05-01T04:15:52.039Z,48.30
2023-05-01T04:18:20.713Z,48.40
2023-05-01T04:20:49.035Z,47.60
2023-05-01T04:23:17.491Z,48.20
2023-05-01T04:25:49.326Z,46.90
2023-05-01T04:28:19.669Z,47.50
2023-05-01T04:30:48.190Z,47.20
2023-05-01T04:33:16.722Z,46.30
2023-05-01T04:35:45.363Z,46.30
2023-05-01T04:38:14.345Z,46.30
2023-05-01T04:40:43.384Z,47.80
2023-05-01T04:43:13.363Z,47.70
2023-05-01T04:45:42.766Z,47.50
2023-05-01T04:48:11.295Z,48.00
2023-05-01T04:50:39.707Z,47.90
2023-05-01T04:53:09.950Z,48.70
2023-05-01T04:55:40.416Z,48.10
2023-05-01T04:58:16.799Z,48.20
2023-05-01T05:00:47.350Z,47.80
2023-05-01T05:03:22.155Z,48.70
2023-05-01T05:05:50.836Z,47.40
2023-05-01T05:08:19.994Z,48.30
2023-05-01T05:10:59.878Z,48.20
2023-05-01T05:13:33.829Z,48.20
2023-05-01T05:16:05.981Z,47.70
2023-05-01T05:18:34.527Z,47.90
2023-05-01T05:21:06.619Z,46.20
2023-05-01T05:23:35.248Z,44.60
2023-05-01T05:26:04.158Z,45.60
2023-05-01T05:28:34.163Z,47.30
2023-05-01T05:31:02.618Z,46.20
2023-05-01T05:33:32.845Z,47.50
2023-05-01T05:36:02.062Z,46.10
2023-05-01T05:38:37.156Z,44.30
2023-05-01T05:41:08.109Z,45.50
2023-05-01T05:43:38.662Z,44.50
2023-05-01T05:46:09.034Z,44.20
2023-05-01T05:48:38.935Z,43.10
2023-05-01T05:51:07.674Z,41.80
2023-05-01T05:53:36.620Z,41.60
2023-05-01T05:56:05.474Z,40.90
2023-05-01T05:58:37.940Z,40.40
2023-05-01T06:01:09.426Z,41.30
2023-05-01T06:03:39.716Z,41.30
2023-05-01T06:06:08.947Z,40.60
2023-05-01T06:08:37.949Z,39.50
2023-05-01T06:11:10.736Z,40.00
2023-05-01T06:13:42.304Z,40.70
2023-05-01T06:16:11.218Z,40.10
2023-05-01T06:18:39.772Z,41.00
2023-05-01T06:21:08.330Z,40.20
2023-05-01T06:23:37.099Z,39.80
2023-05-01T06:26:27.080Z,39.80
2023-05-01T06:28:57.605Z,39.60
2023-05-01T06:31:30.202Z,38.60
2023-05-01T06:33:59.327Z,38.30
2023-05-01T06:36:32.590Z,38.00
2023-05-01T06:39:00.946Z,38.10
2023-05-01T06:41:29.308Z,38.40
2023-05-01T06:43:59.850Z,37.40
2023-05-01T06:46:28.618Z,35.50
2023-05-01T06:48:57.021Z,36.70
2023-05-01T06:51:25.999Z,34.80
2023-05-01T06:53:54.505Z,36.70
2023-05-01T06:56:23.592Z,36.80
2023-05-01T06:58:52.099Z,37.30
2023-05-01T07:01:22.838Z,36.60
2023-05-01T07:03:51.878Z,36.70
2023-05-01T07:06:20.554Z,36.50
2023-05-01T07:08:49.137Z,35.40
2023-05-01T07:11:17.490Z,34.80
2023-05-01T07:13:46.545Z,35.30
2023-05-01T07:16:14.938Z,35.00
2023-05-01T07:18:46.652Z,35.50
2023-05-01T07:21:15.867Z,35.40
2023-05-01T07:23:45.190Z,35.70
2023-05-01T07:26:14.045Z,35.90
2023-05-01T07:28:42.751Z,37.20
2023-05-01T07:31:11.384Z,37.10
2023-05-01T07:33:39.953Z,37.00
2023-05-01T07:36:09.837Z,36.90
2023-05-01T07:38:38.565Z,36.60
2023-05-01T07:41:07.588Z,37.10
2023-05-01T07:43:36.037Z,36.80
2023-05-01T07:46:05.488Z,36.60
2023-05-01T07:48:35.051Z,39.50
2023-05-01T07:51:05.083Z,38.70
2023-05-01T07:53:35.511Z,39.10
2023-05-01T07:56:08.926Z,38.30
2023-05-01T07:58:38.296Z,38.70
2023-05-01T08:01:07.795Z,40.10
2023-05-01T08:03:37.222Z,41.00
2023-05-01T08:06:06.178Z,39.30
2023-05-01T08:08:36.045Z,38.80
2023-05-01T08:11:04.409Z,38.00
2023-05-01T08:13:32.872Z,36.60
2023-05-01T08:16:05.317Z,38.00
2023-05-01T08:18:33.861Z,38.20
2023-05-01T08:21:02.223Z,37.90
2023-05-01T08:23:32.202Z,37.70
2023-05-01T08:26:01.924Z,37.30
2023-05-01T08:28:30.657Z,36.40
2023-05-01T08:30:59.453Z,37.30
2023-05-01T08:33:27.891Z,36.70
2023-05-01T08:35:56.291Z,37.10
2023-05-01T08:38:24.761Z,39.90
2023-05-01T08:40:54.964Z,37.50
2023-05-01T08:43:26.904Z,38.00
2023-05-01T08:45:57.327Z,37.60
2023-05-01T08:48:28.092Z,36.50
2023-05-01T08:50:59.387Z,35.30
2023-05-01T08:53:28.652Z,35.90
2023-05-01T08:55:57.652Z,35.00
2023-05-01T08:58:29.687Z,35.80
2023-05-01T09:01:01.216Z,34.40
2023-05-01T09:03:32.896Z,38.10
2023-05-01T09:06:05.114Z,35.90
2023-05-01T09:08:34.670Z,36.20
2023-05-01T09:11:03.910Z,35.90
2023-05-01T09:13:33.870Z,36.90
2023-05-01T09:16:02.456Z,37.80
2023-05-01T09:18:31.413Z,37.90
2023-05-01T09:21:00.215Z,38.00
2023-05-01T09:23:28.737Z,37.80
2023-05-01T09:25:58.719Z,38.40
2023-05-01T09:28:45.941Z,38.80
2023-05-01T09:31:28.778Z,38.00
2023-05-01T09:33:58.617Z,39.10
2023-05-01T09:36:31.062Z,38.30
2023-05-01T09:39:00.288Z,36.50
2023-05-01T09:41:31.686Z,37.10
2023-05-01T09:44:01.892Z,36.10
2023-05-01T09:46:42.299Z,38.40
2023-05-01T09:49:11.897Z,36.80
2023-05-01T09:51:40.798Z,36.80
2023-05-01T09:54:19.619Z,35.60
2023-05-01T09:56:49.884Z,35.60
2023-05-01T09:59:21.633Z,36.70
2023-05-01T10:01:50.931Z,37.00
2023-05-01T10:04:31.228Z,37.20
2023-05-01T10:07:00.793Z,35.60
2023-05-01T10:09:30.690Z,37.30
2023-05-01T10:12:00.630Z,36.90
2023-05-01T10:14:33.842Z,37.90
2023-05-01T10:17:08.776Z,38.10
2023-05-01T10:19:38.063Z,37.10
2023-05-01T10:22:06.724Z,38.30
2023-05-01T10:24:35.600Z,38.70
2023-05-01T10:27:05.708Z,39.30
2023-05-01T10:29:37.359Z,39.80
2023-05-01T10:32:09.230Z,42.80
2023-05-01T10:34:44.489Z,42.30
2023-05-01T10:37:19.408Z,43.30
2023-05-01T10:39:48.048Z,41.50
2023-05-01T10:42:18.172Z,42.40
2023-05-01T10:44:50.008Z,40.00
2023-05-01T10:47:46.713Z,39.30
2023-05-01T10:50:16.909Z,38.90
2023-05-01T10:53:18.428Z,38.90
2023-05-01T10:55:49.442Z,38.70
2023-05-01T10:58:56.757Z,38.80
2023-05-01T11:01:35.066Z,38.70
2023-05-01T11:04:08.287Z,38.80
2023-05-01T11:06:39.327Z,38.00
2023-05-01T11:09:40.117Z,38.70
2023-05-01T11:12:10.407Z,38.90
2023-05-01T11:15:05.756Z,39.00
2023-05-01T11:17:49.922Z,38.20
2023-05-01T11:20:48.716Z,38.40
2023-05-01T11:23:22.354Z,38.50
2023-05-01T11:26:02.306Z,38.50
2023-05-01T11:28:33.281Z,37.70
2023-05-01T11:31:03.581Z,37.80
2023-05-01T11:33:34.533Z,39.60
2023-05-01T11:36:05.050Z,39.10
2023-05-01T11:38:33.679Z,36.60
2023-05-01T11:41:04.547Z,37.40
2023-05-01T11:43:33.549Z,35.80
2023-05-01T11:46:05.022Z,35.40
2023-05-01T11:48:35.079Z,35.60
2023-05-01T11:51:14.210Z,35.10
2023-05-01T11:53:43.026Z,34.80
2023-05-01T11:56:26.769Z,34.00
2023-05-01T11:58:57.735Z,34.80
2023-05-01T12:01:36.094Z,35.00
2023-05-01T12:04:08.299Z,34.80
2023-05-01T12:06:44.644Z,34.80
2023-05-01T12:09:17.979Z,34.20
2023-05-01T12:11:59.775Z,33.50
2023-05-01T12:14:39.000Z,34.10
2023-05-01T12:17:18.075Z,34.00
2023-05-01T12:19:50.835Z,34.00
2023-05-01T12:22:22.055Z,34.20
2023-05-01T12:24:52.922Z,35.50
2023-05-01T12:27:33.117Z,34.90
2023-05-01T12:30:13.231Z,34.20
2023-05-01T12:32:43.364Z,33.50
2023-05-01T12:35:18.415Z,33.80
2023-05-01T12:37:50.981Z,34.50
2023-05-01T12:40:20.695Z,34.20
2023-05-01T12:42:57.283Z,35.80
2023-05-01T12:45:26.502Z,34.80
2023-05-01T12:47:55.434Z,34.10
2023-05-01T12:50:25.868Z,34.00
2023-05-01T12:52:54.533Z,35.30
2023-05-01T12:55:23.817Z,34.80
2023-05-01T12:57:56.102Z,34.20
2023-05-01T13:00:25.018Z,35.70
2023-05-01T13:02:56.094Z,35.70
2023-05-01T13:05:26.357Z,34.10
2023-05-01T13:07:56.803Z,34.20
2023-05-01T13:10:35.690Z,36.00
2023-05-01T13:13:05.162Z,34.50
2023-05-01T13:15:34.399Z,35.30
2023-05-01T13:18:06.308Z,35.00
2023-05-01T13:20:38.945Z,35.40
2023-05-01T13:23:12.932Z,34.20
2023-05-01T13:25:41.741Z,35.10
2023-05-01T13:28:11.914Z,35.70
2023-05-01T13:30:41.017Z,35.60
2023-05-01T13:33:12.576Z,35.20
2023-05-01T13:35:42.846Z,34.40
2023-05-01T13:38:13.815Z,34.40
2023-05-01T13:40:42.937Z,34.60
2023-05-01T13:43:16.396Z,33.70
2023-05-01T13:45:45.141Z,34.10
2023-05-01T13:48:13.975Z,34.40
2023-05-01T13:50:46.100Z,32.90
2023-05-01T13:53:16.891Z,34.00
2023-05-01T13:55:48.496Z,33.10
2023-05-01T13:58:17.157Z,34.20
2023-05-01T14:00:47.380Z,33.80
2023-05-01T14:03:18.995Z,33.20
2023-05-01T14:05:49.950Z,32.40
2023-05-01T14:08:22.619Z,34.30
2023-05-01T14:10:52.023Z,30.10
2023-05-01T14:13:21.072Z,30.00
2023-05-01T14:15:49.932Z,31.80
2023-05-01T14:18:19.729Z,31.90
2023-05-01T14:20:51.497Z,32.10
2023-05-01T14:23:20.872Z,31.00
2023-05-01T14:25:51.263Z,31.60
2023-05-01T14:28:21.123Z,32.80
2023-05-01T14:30:51.043Z,30.50
2023-05-01T14:33:19.944Z,30.80
2023-05-01T14:35:52.607Z,32.10
2023-05-01T14:38:23.694Z,31.60
2023-05-01T14:40:52.976Z,31.50
2023-05-01T14:43:22.966Z,31.90
2023-05-01T14:45:54.044Z,32.00
2023-05-01T14:48:24.772Z,32.60
2023-05-01T14:50:56.085Z,30.00
2023-05-01T14:53:25.133Z,32.00
2023-05-01T14:55:54.276Z,30.00
2023-05-01T14:58:22.702Z,32.60
2023-05-01T15:00:51.510Z,33.50
2023-05-01T15:03:20.340Z,34.60
2023-05-01T15:05:50.473Z,31.70
2023-05-01T15:08:20.934Z,32.70
2023-05-01T15:10:52.562Z,29.50
2023-05-01T15:13:21.517Z,29.10
2023-05-01T15:15:50.390Z,29.30
2023-05-01T15:18:19.180Z,28.00
2023-05-01T15:20:47.817Z,29.50
2023-05-01T15:23:16.775Z,29.90
2023-05-01T15:25:48.024Z,29.40
2023-05-01T15:28:17.351Z,27.60
2023-05-01T15:30:47.308Z,27.90
2023-05-01T15:33:19.072Z,27.80
2023-05-01T15:35:48.850Z,27.70
2023-05-01T15:38:17.989Z,28.10
2023-05-01T15:40:50.012Z,28.90
2023-05-01T15:43:19.939Z,28.10
2023-05-01T15:45:48.599Z,29.40
2023-05-01T15:48:17.275Z,27.50
2023-05-01T15:50:49.234Z,28.30
2023-05-01T15:53:18.586Z,28.00
2023-05-01T15:55:48.411Z,28.10
2023-05-01T15:58:17.215Z,26.80
2023-05-01T16:00:48.348Z,28.20
2023-05-01T16:03:18.608Z,27.60
2023-05-01T16:05:47.585Z,26.70
2023-05-01T16:08:16.086Z,28.70
2023-05-01T16:10:44.646Z,27.70
2023-05-01T16:13:15.049Z,27.50
2023-05-01T16:15:43.498Z,27.40
2023-05-01T16:18:19.807Z,28.20
2023-05-01T16:20:48.332Z,27.10
2023-05-01T16:24:01.798Z,27.30
2023-05-01T16:26:31.483Z,26.90
2023-05-01T16:29:07.944Z,28.70
2023-05-01T16:31:40.125Z,30.00
2023-05-01T16:34:11.950Z,30.60
2023-05-01T16:36:43.391Z,34.20
2023-05-01T16:39:14.974Z,36.00
2023-05-01T16:41:46.308Z,36.10
2023-05-01T16:44:17.774Z,37.00
2023-05-01T16:46:53.469Z,37.70
2023-05-01T16:49:22.393Z,38.10
2023-05-01T16:51:54.872Z,38.50
2023-05-01T16:54:23.319Z,39.00
2023-05-01T16:56:51.869Z,40.10
2023-05-01T16:59:24.854Z,41.20
2023-05-01T17:01:53.942Z,41.70
2023-05-01T17:04:22.486Z,42.60
2023-05-01T17:06:51.407Z,43.20
2023-05-01T17:09:20.115Z,43.40
2023-05-01T17:11:59.147Z,44.30
2023-05-01T17:14:30.608Z,44.40
2023-05-01T17:16:59.653Z,43.80
2023-05-01T17:19:28.368Z,44.30
2023-05-01T17:21:57.929Z,45.40
2023-05-01T17:24:26.974Z,46.40
2023-05-01T17:26:55.543Z,47.80
2023-05-01T17:29:24.280Z,48.20
2023-05-01T17:31:54.365Z,48.10
2023-05-01T17:34:22.916Z,47.40
2023-05-01T17:36:51.596Z,47.20
2023-05-01T17:39:21.742Z,46.50
2023-05-01T17:41:50.677Z,45.20
2023-05-01T17:44:19.021Z,44.80
2023-05-01T17:46:47.433Z,43.80
2023-05-01T17:49:17.994Z,42.10
2023-05-01T17:51:46.439Z,41.50
2023-05-01T17:54:16.765Z,40.20
2023-05-01T17:56:45.282Z,40.50
2023-05-01T17:59:14.350Z,39.50
2023-05-01T18:01:42.762Z,39.50
2023-05-01T18:04:11.517Z,39.10
2023-05-01T18:06:41.465Z,38.70
2023-05-01T18:09:10.641Z,36.80
2023-05-01T18:11:39.039Z,39.30
2023-05-01T18:14:07.443Z,40.70
2023-05-01T18:16:36.189Z,41.30
2023-05-01T18:19:05.911Z,41.80
2023-05-01T18:21:34.879Z,43.00
2023-05-01T18:24:05.526Z,44.10
2023-05-01T18:26:33.969Z,44.60
2023-05-01T18:29:02.808Z,45.40
2023-05-01T18:31:34.040Z,46.80
2023-05-01T18:34:02.649Z,47.70
2023-05-01T18:36:31.783Z,49.00
2023-05-01T18:39:00.927Z,49.40
2023-05-01T18:41:31.944Z,50.30
2023-05-01T18:44:01.394Z,50.30
2023-05-01T18:46:29.890Z,50.10
2023-05-01T18:48:59.796Z,49.40
2023-05-01T18:51:28.217Z,48.60
2023-05-01T18:53:56.604Z,47.70
2023-05-01T18:56:27.593Z,46.60
2023-05-01T18:58:57.522Z,46.60
2023-05-01T19:01:26.951Z,46.90
2023-05-01T19:03:58.967Z,48.00
2023-05-01T19:06:27.597Z,48.50
2023-05-01T19:08:56.485Z,48.60
2023-05-01T19:11:26.349Z,49.30
2023-05-01T19:13:55.167Z,50.00
2023-05-01T19:16:25.729Z,49.70
2023-05-01T19:18:54.200Z,49.80
2023-05-01T19:21:22.645Z,48.60
2023-05-01T19:23:51.113Z,47.30
2023-05-01T19:26:19.621Z,47.30
2023-05-01T19:28:48.246Z,47.30
2023-05-01T19:31:19.962Z,47.30
2023-05-01T19:33:50.131Z,47.90
2023-05-01T19:36:18.527Z,50.00
2023-05-01T19:38:47.602Z,50.20
2023-05-01T19:41:17.134Z,50.20
2023-05-01T19:43:45.474Z,50.20
2023-05-01T19:46:14.017Z,50.30
2023-05-01T19:48:42.657Z,48.90
2023-05-01T19:51:12.651Z,48.30
2023-05-01T19:53:42.049Z,48.60
2023-05-01T19:56:11.449Z,49.40
2023-05-01T19:58:40.132Z,49.10
2023-05-01T20:01:11.821Z,48.80
2023-05-01T20:03:40.568Z,48.30
2023-05-01T20:06:09.124Z,47.30
2023-05-01T20:08:39.043Z,47.00
2023-05-01T20:11:07.680Z,46.80
2023-05-01T20:13:36.793Z,45.90
2023-05-01T20:16:05.837Z,45.70
2023-05-01T20:18:34.790Z,45.70
2023-05-01T20:21:03.185Z,45.00
2023-05-01T20:23:31.628Z,46.00
2023-05-01T20:26:04.813Z,45.10
2023-05-01T20:28:33.189Z,45.50
2023-05-01T20:31:02.230Z,46.00
2023-05-01T20:33:31.715Z,46.40
2023-05-01T20:36:00.347Z,47.30
2023-05-01T20:38:28.731Z,48.30
2023-05-01T20:40:57.139Z,50.20
2023-05-01T20:43:27.036Z,52.10
2023-05-01T20:45:57.126Z,50.00
2023-05-01T20:48:27.044Z,51.90
2023-05-01T20:50:55.645Z,54.80
2023-05-01T20:53:24.066Z,54.90
2023-05-01T20:55:52.592Z,54.10
2023-05-01T20:58:20.996Z,54.20
2023-05-01T21:00:50.899Z,54.50
2023-05-01T21:03:19.447Z,53.40
2023-05-01T21:05:48.894Z,51.40
2023-05-01T21:08:17.613Z,50.10
2023-05-01T21:10:46.047Z,50.30
2023-05-01T21:13:15.456Z,50.30
2023-05-01T21:15:43.832Z,50.50
2023-05-01T21:18:15.466Z,52.60
2023-05-01T21:20:46.120Z,53.30
2023-05-01T21:23:18.392Z,55.30
2023-05-01T21:25:46.806Z,57.80
2023-05-01T21:28:16.265Z,60.10
2023-05-01T21:30:45.720Z,62.10
2023-05-01T21:33:17.304Z,62.30
2023-05-01T21:35:47.441Z,60.80
2023-05-01T21:38:16.227Z,60.40
2023-05-01T21:40:46.170Z,60.80
2023-05-01T21:43:14.861Z,60.80
2023-05-01T21:45:45.583Z,59.40
2023-05-01T21:48:18.430Z,58.00
2023-05-01T21:50:50.690Z,55.90
2023-05-01T21:53:21.086Z,54.50
2023-05-01T21:55:49.551Z,53.50
2023-05-01T21:58:18.016Z,52.60
2023-05-01T22:00:47.615Z,52.10
2023-05-01T22:03:20.162Z,51.30
2023-05-01T22:05:50.858Z,51.20
2023-05-01T22:08:19.883Z,51.30
2023-05-01T22:10:48.983Z,52.10
2023-05-01T22:13:17.920Z,53.50
2023-05-01T22:15:48.820Z,53.80
2023-05-01T22:18:19.689Z,52.90
2023-05-01T22:20:48.606Z,52.20
2023-05-01T22:23:16.900Z,53.20
2023-05-01T22:25:47.187Z,53.50
2023-05-01T22:28:17.564Z,53.70
2023-05-01T22:30:48.909Z,53.60
2023-05-01T22:33:18.950Z,55.10
2023-05-01T22:35:47.681Z,56.00
2023-05-01T22:38:15.968Z,56.60
2023-05-01T22:40:44.382Z,57.30
2023-05-01T22:43:12.823Z,59.50
2023-05-01T22:45:43.139Z,60.60
2023-05-01T22:48:12.145Z,60.60
2023-05-01T22:50:43.121Z,61.10
2023-05-01T22:53:12.484Z,62.10
2023-05-01T22:55:41.266Z,61.80
2023-05-01T22:58:09.671Z,59.20
2023-05-01T23:00:38.423Z,59.30
2023-05-01T23:03:08.070Z,60.50
2023-05-01T23:05:36.827Z,60.40
2023-05-01T23:08:07.350Z,60.30
2023-05-01T23:10:36.170Z,60.30
2023-05-01T23:13:04.965Z,58.30
2023-05-01T23:15:33.695Z,56.40
2023-05-01T23:18:02.169Z,55.30
2023-05-01T23:20:30.704Z,56.80
2023-05-01T23:23:01.273Z,57.20
2023-05-01T23:25:31.022Z,57.60
2023-05-01T23:27:59.387Z,57.50
2023-05-01T23:30:27.852Z,55.90
2023-05-01T23:33:00.110Z,54.60
2023-05-01T23:35:29.130Z,53.50
2023-05-01T23:37:57.436Z,54.90
2023-05-01T23:40:26.309Z,56.90
2023-05-01T23:42:57.615Z,55.10
2023-05-01T23:45:26.017Z,53.80
2023-05-01T23:47:55.095Z,53.10
2023-05-01T23:50:25.720Z,52.30
2023-05-01T23:52:54.295Z,53.50
2023-05-01T23:55:23.044Z,53.80
2023-05-01T23:57:51.514Z,55.70
